Time;durP1;ratioP1;P1;durP2;ratioP2;P2;SDS_P1;SDS_P2;PMS_P1;PMS_P2;Temp;Humidity;BMP_temperature;BMP_pressure;BME280_temperature;BME280_humidity;BME280_pressure;Samples;Min_cycle;Max_cycle;Signal;HPM_P1;HPM_P2
2023/08/02 00:00:48;;;;;;;3.33;3.03;;;;;;;;;;5036555;28;20391;-83
2023/08/02 00:03:14;;;;;;;3.35;3.03;;;;;;;;;;5035910;28;20520;-82
2023/08/02 00:05:40;;;;;;;3.88;3.40;;;;;;;;;;5036546;28;20383;-82
2023/08/02 00:08:06;;;;;;;3.95;3.30;;;;;;;;;;5037118;28;20426;-82
2023/08/02 00:10:36;;;;;;;3.40;3.10;;;;;;;;;;5035034;28;20764;-82
2023/08/02 00:13:02;;;;;;;4.27;3.20;;;;;;;;;;5041506;28;20793;-82
2023/08/02 00:15:28;;;;;;;2.78;2.58;;;;;;;;;;5056565;28;20480;-82
2023/08/02 00:17:54;;;;;;;4.93;3.00;;;;;;;;;;5056599;28;20400;-82
2023/08/02 00:20:20;;;;;;;4.78;3.38;;;;;;;;;;5056760;28;20404;-82
2023/08/02 00:22:46;;;;;;;3.45;3.20;;;;;;;;;;5057009;28;20409;-82
2023/08/02 00:25:12;;;;;;;3.90;3.20;;;;;;;;;;5056830;28;20447;-82
2023/08/02 00:27:38;;;;;;;4.38;3.20;;;;;;;;;;5056694;28;20403;-82
2023/08/02 00:30:04;;;;;;;3.63;3.33;;;;;;;;;;5046046;28;20387;-82
2023/08/02 00:32:30;;;;;;;3.90;3.60;;;;;;;;;;5035578;28;20415;-82
2023/08/02 00:34:56;;;;;;;4.10;3.70;;;;;;;;;;5036215;28;20379;-81
2023/08/02 00:37:25;;;;;;;3.90;3.33;;;;;;;;;;5036941;28;20437;-82
2023/08/02 00:39:52;;;;;;;4.47;3.45;;;;;;;;;;5035938;28;20375;-81
2023/08/02 00:42:18;;;;;;;5.15;3.00;;;;;;;;;;5046905;28;20400;-81
2023/08/02 00:44:44;;;;;;;3.40;3.10;;;;;;;;;;5053139;28;20410;-81
2023/08/02 00:47:11;;;;;;;5.93;3.65;;;;;;;;;;5055497;28;20390;-81
2023/08/02 00:49:36;;;;;;;4.00;2.83;;;;;;;;;;5055960;28;20465;-81
2023/08/02 00:52:03;;;;;;;3.75;3.45;;;;;;;;;;5043820;28;20469;-81
2023/08/02 00:54:29;;;;;;;4.70;3.20;;;;;;;;;;5035337;28;20390;-81
2023/08/02 00:56:55;;;;;;;6.40;3.80;;;;;;;;;;5033988;28;20453;-81
2023/08/02 00:59:21;;;;;;;4.18;3.03;;;;;;;;;;5036125;28;20387;-81
2023/08/02 01:01:47;;;;;;;6.00;3.58;;;;;;;;;;5035473;28;20394;-81
2023/08/02 01:04:15;;;;;;;5.90;3.97;;;;;;;;;;5038059;28;20741;-82
2023/08/02 01:06:48;;;;;;;4.30;3.72;;;;;;;;;;5036035;28;20425;-81
2023/08/02 01:09:21;;;;;;;3.72;3.35;;;;;;;;;;5036379;28;20433;-81
2023/08/02 01:11:51;;;;;;;3.75;3.45;;;;;;;;;;5035436;28;20395;-81
2023/08/02 01:14:20;;;;;;;3.55;3.25;;;;;;;;;;5034735;28;20395;-81
2023/08/02 01:16:46;;;;;;;3.80;3.40;;;;;;;;;;5036066;28;20426;-81
2023/08/02 01:19:12;;;;;;;4.03;3.15;;;;;;;;;;5033811;28;20864;-81
2023/08/02 01:21:39;;;;;;;3.50;3.20;;;;;;;;;;5035374;28;20399;-81
2023/08/02 01:24:06;;;;;;;3.88;3.47;;;;;;;;;;5035150;28;20473;-81
2023/08/02 01:26:33;;;;;;;3.90;3.60;;;;;;;;;;5035025;28;20714;-81
2023/08/02 01:29:02;;;;;;;4.32;3.92;;;;;;;;;;5035720;28;20779;-82
2023/08/02 01:31:31;;;;;;;5.27;4.60;;;;;;;;;;5035173;28;20466;-81
2023/08/02 01:33:59;;;;;;;5.93;5.18;;;;;;;;;;5035337;28;20391;-81
2023/08/02 01:36:25;;;;;;;4.70;4.30;;;;;;;;;;5035794;28;20468;-81
2023/08/02 01:38:51;;;;;;;5.10;4.60;;;;;;;;;;5035741;28;20466;-82
2023/08/02 01:41:17;;;;;;;5.38;4.30;;;;;;;;;;5035381;28;20395;-81
2023/08/02 01:43:43;;;;;;;4.75;4.32;;;;;;;;;;5034738;28;20725;-81
2023/08/02 01:46:09;;;;;;;4.45;4.00;;;;;;;;;;5035472;28;20393;-81
2023/08/02 01:48:35;;;;;;;4.38;3.97;;;;;;;;;;5035257;28;20855;-81
2023/08/02 01:51:01;;;;;;;4.53;4.13;;;;;;;;;;5034980;28;20406;-81
2023/08/02 01:53:27;;;;;;;4.75;3.95;;;;;;;;;;5034758;28;20887;-81
2023/08/02 01:55:53;;;;;;;4.60;4.20;;;;;;;;;;5033497;28;20433;-81
2023/08/02 01:58:19;;;;;;;4.63;4.03;;;;;;;;;;5034855;28;20470;-81
2023/08/02 02:00:46;;;;;;;4.53;4.22;;;;;;;;;;5033554;28;20450;-81
2023/08/02 02:03:12;;;;;;;4.90;4.50;;;;;;;;;;5034378;28;20445;-81
2023/08/02 02:05:38;;;;;;;3.90;3.50;;;;;;;;;;5034746;28;20387;-81
2023/08/02 02:08:04;;;;;;;4.68;4.00;;;;;;;;;;5048427;28;20455;-81
2023/08/02 02:10:30;;;;;;;4.40;4.00;;;;;;;;;;5053737;28;20405;-81
2023/08/02 02:12:56;;;;;;;6.43;5.10;;;;;;;;;;5054015;28;20413;-81
2023/08/02 02:15:22;;;;;;;4.72;4.32;;;;;;;;;;5054252;28;20439;-81
2023/08/02 02:17:48;;;;;;;5.00;4.20;;;;;;;;;;5053098;28;20732;-81
2023/08/02 02:20:14;;;;;;;5.03;4.07;;;;;;;;;;5054637;28;20382;-81
2023/08/02 02:22:40;;;;;;;5.15;3.83;;;;;;;;;;5053922;28;20381;-81
2023/08/02 02:25:07;;;;;;;4.80;4.40;;;;;;;;;;5053070;28;20440;-81
2023/08/02 02:27:33;;;;;;;6.22;4.10;;;;;;;;;;5053705;28;20735;-81
2023/08/02 02:29:59;;;;;;;5.47;4.60;;;;;;;;;;5051980;28;20388;-81
2023/08/02 02:32:25;;;;;;;6.30;5.27;;;;;;;;;;5052093;28;20724;-82
2023/08/02 02:34:51;;;;;;;5.47;4.97;;;;;;;;;;5041614;28;20388;-82
2023/08/02 02:37:17;;;;;;;5.80;4.82;;;;;;;;;;5033570;28;20395;-81
2023/08/02 02:39:43;;;;;;;6.03;5.43;;;;;;;;;;5033447;28;20454;-81
2023/08/02 02:42:09;;;;;;;6.78;5.57;;;;;;;;;;5032360;28;20869;-81
2023/08/02 02:44:44;;;;;;;5.38;4.80;;;;;;;;;;5034332;28;20418;-81
2023/08/02 02:47:10;;;;;;;5.18;4.03;;;;;;;;;;5054220;28;20473;-81
2023/08/02 02:49:36;;;;;;;4.03;3.63;;;;;;;;;;5053356;28;20377;-81
2023/08/02 02:52:03;;;;;;;6.55;4.50;;;;;;;;;;5053624;28;20384;-81
2023/08/02 02:54:29;;;;;;;4.57;3.78;;;;;;;;;;5035342;28;20395;-81
2023/08/02 02:56:55;;;;;;;4.05;3.65;;;;;;;;;;5033732;28;20733;-81
2023/08/02 02:59:21;;;;;;;5.32;3.80;;;;;;;;;;5048083;28;20389;-81
2023/08/02 03:01:47;;;;;;;3.80;3.40;;;;;;;;;;5053268;28;20417;-81
2023/08/02 03:04:13;;;;;;;4.90;3.85;;;;;;;;;;5053371;28;20510;-81
2023/08/02 03:06:39;;;;;;;5.47;3.90;;;;;;;;;;5053584;28;20839;-81
2023/08/02 03:09:05;;;;;;;4.03;3.70;;;;;;;;;;5057170;28;20392;-81
2023/08/02 03:11:31;;;;;;;3.47;3.15;;;;;;;;;;5057261;28;20385;-81
2023/08/02 03:13:56;;;;;;;3.40;3.10;;;;;;;;;;5053739;28;20431;-81
2023/08/02 03:16:22;;;;;;;4.07;3.67;;;;;;;;;;5057057;28;20861;-81
2023/08/02 03:18:49;;;;;;;4.03;3.63;;;;;;;;;;5057455;28;20385;-81
2023/08/02 03:21:15;;;;;;;4.33;3.90;;;;;;;;;;5057061;28;20412;-82
2023/08/02 03:23:42;;;;;;;4.80;3.80;;;;;;;;;;5056233;28;20435;-81
2023/08/02 03:26:08;;;;;;;4.73;3.67;;;;;;;;;;5056363;28;20408;-81
2023/08/02 03:28:34;;;;;;;4.50;3.70;;;;;;;;;;5056769;28;20445;-81
2023/08/02 03:31:00;;;;;;;3.97;3.63;;;;;;;;;;5056535;28;20412;-81
2023/08/02 03:33:26;;;;;;;4.88;3.85;;;;;;;;;;5056866;28;20388;-81
2023/08/02 03:35:52;;;;;;;3.83;3.43;;;;;;;;;;5056204;28;20727;-81
2023/08/02 03:38:18;;;;;;;3.92;3.40;;;;;;;;;;5056556;28;20424;-81
2023/08/02 03:40:44;;;;;;;4.15;3.42;;;;;;;;;;5056735;28;20381;-81
2023/08/02 03:43:10;;;;;;;4.22;3.38;;;;;;;;;;5056413;28;20428;-81
2023/08/02 03:45:36;;;;;;;4.40;3.80;;;;;;;;;;5055866;28;20385;-81
2023/08/02 03:48:02;;;;;;;4.33;3.93;;;;;;;;;;5056410;28;20818;-81
2023/08/02 03:50:28;;;;;;;5.20;3.97;;;;;;;;;;5055744;28;20386;-81
2023/08/02 03:52:54;;;;;;;4.85;4.00;;;;;;;;;;5057486;28;20778;-81
2023/08/02 03:55:20;;;;;;;4.05;3.55;;;;;;;;;;5058806;28;20390;-81
2023/08/02 03:57:46;;;;;;;4.43;3.78;;;;;;;;;;5059511;28;20388;-82
2023/08/02 04:00:12;;;;;;;3.78;3.47;;;;;;;;;;5059179;28;20866;-82
2023/08/02 04:02:38;;;;;;;4.40;4.00;;;;;;;;;;5059757;28;20404;-82
2023/08/02 04:05:04;;;;;;;4.40;4.00;;;;;;;;;;5060817;28;20464;-82
2023/08/02 04:07:30;;;;;;;4.72;4.22;;;;;;;;;;5060829;28;20465;-82
2023/08/02 04:09:56;;;;;;;4.30;3.40;;;;;;;;;;5059023;28;20783;-82
2023/08/02 04:12:22;;;;;;;4.60;3.92;;;;;;;;;;5060361;28;20381;-82
2023/08/02 04:14:48;;;;;;;4.00;3.70;;;;;;;;;;5060768;28;20446;-82
2023/08/02 04:17:14;;;;;;;3.65;3.35;;;;;;;;;;5060899;28;20397;-82
2023/08/02 04:19:40;;;;;;;4.75;4.00;;;;;;;;;;5059616;28;20424;-82
2023/08/02 04:22:06;;;;;;;3.85;3.55;;;;;;;;;;5060613;28;20401;-82
2023/08/02 04:24:33;;;;;;;5.85;4.43;;;;;;;;;;5060017;28;20417;-82
2023/08/02 04:26:59;;;;;;;4.80;4.40;;;;;;;;;;5060340;28;20464;-82
2023/08/02 04:29:25;;;;;;;6.25;4.25;;;;;;;;;;5060212;28;20416;-82
2023/08/02 04:31:51;;;;;;;5.07;4.63;;;;;;;;;;5040064;28;20383;-82
2023/08/02 04:34:17;;;;;;;4.47;4.13;;;;;;;;;;5040182;28;20470;-82
2023/08/02 04:36:43;;;;;;;4.40;4.00;;;;;;;;;;5040070;28;20411;-82
2023/08/02 04:39:10;;;;;;;4.25;3.88;;;;;;;;;;5047755;28;20861;-82
2023/08/02 04:41:36;;;;;;;4.78;4.28;;;;;;;;;;5061261;28;20392;-82
2023/08/02 04:44:02;;;;;;;5.55;3.70;;;;;;;;;;5059642;28;20421;-82
2023/08/02 04:46:28;;;;;;;5.47;5.00;;;;;;;;;;5060514;28;20857;-82
2023/08/02 04:48:54;;;;;;;5.47;5.00;;;;;;;;;;5059248;28;20384;-83
2023/08/02 04:51:20;;;;;;;5.47;4.72;;;;;;;;;;5060212;28;20398;-82
2023/08/02 04:53:49;;;;;;;5.72;5.22;;;;;;;;;;5060630;28;20382;-82
2023/08/02 04:56:15;;;;;;;6.30;5.40;;;;;;;;;;5061209;28;20385;-82
2023/08/02 04:58:42;;;;;;;6.10;5.20;;;;;;;;;;5061429;28;20476;-82
2023/08/02 05:01:08;;;;;;;8.10;6.10;;;;;;;;;;5039457;28;20395;-82
2023/08/02 05:03:35;;;;;;;7.22;5.57;;;;;;;;;;5041062;28;20504;-82
2023/08/02 05:06:01;;;;;;;6.23;5.63;;;;;;;;;;5043119;28;20476;-82
2023/08/02 05:08:29;;;;;;;7.00;6.30;;;;;;;;;;5040192;28;20398;-82
2023/08/02 05:10:55;;;;;;;6.85;6.22;;;;;;;;;;5039911;28;20391;-82
2023/08/02 05:13:27;;;;;;;8.23;6.50;;;;;;;;;;5056503;28;20390;-82
2023/08/02 05:15:55;;;;;;;7.05;6.28;;;;;;;;;;5060262;28;20381;-82
2023/08/02 05:18:21;;;;;;;8.52;7.07;;;;;;;;;;5059601;28;20755;-82
2023/08/02 05:20:47;;;;;;;6.80;6.10;;;;;;;;;;5060284;28;20393;-82
2023/08/02 05:23:13;;;;;;;8.88;6.93;;;;;;;;;;5060012;28;20500;-84
2023/08/02 05:25:39;;;;;;;6.43;5.82;;;;;;;;;;5060756;28;20390;-83
2023/08/02 05:28:05;;;;;;;5.97;5.47;;;;;;;;;;5058473;28;20439;-83
2023/08/02 05:30:32;;;;;;;7.80;5.30;;;;;;;;;;5057647;28;20385;-82
2023/08/02 05:32:58;;;;;;;6.07;5.13;;;;;;;;;;5058008;28;20385;-83
2023/08/02 05:35:25;;;;;;;5.82;5.22;;;;;;;;;;5058418;28;20389;-83
2023/08/02 05:37:51;;;;;;;5.20;4.70;;;;;;;;;;5057881;28;20381;-83
2023/08/02 05:40:17;;;;;;;5.20;4.70;;;;;;;;;;5058074;28;20389;-83
2023/08/02 05:42:43;;;;;;;5.20;4.70;;;;;;;;;;5057481;28;20384;-82
2023/08/02 05:45:10;;;;;;;5.30;4.80;;;;;;;;;;5057503;28;20385;-82
2023/08/02 05:47:36;;;;;;;5.65;5.05;;;;;;;;;;5056631;28;20381;-84
2023/08/02 05:50:02;;;;;;;5.18;4.68;;;;;;;;;;5056104;28;20385;-82
2023/08/02 05:52:28;;;;;;;5.40;5.00;;;;;;;;;;5056946;28;20823;-83
2023/08/02 05:54:54;;;;;;;5.85;5.32;;;;;;;;;;5056926;28;20381;-83
2023/08/02 05:57:20;;;;;;;5.18;4.78;;;;;;;;;;5056539;28;20389;-84
2023/08/02 05:59:48;;;;;;;5.80;5.30;;;;;;;;;;5055710;28;20389;-85
2023/08/02 06:02:14;;;;;;;5.82;5.32;;;;;;;;;;5056477;28;20382;-84
2023/08/02 06:04:40;;;;;;;5.78;5.10;;;;;;;;;;5056259;28;20431;-85
2023/08/02 06:07:06;;;;;;;5.43;4.93;;;;;;;;;;5056790;28;20443;-85
2023/08/02 06:09:32;;;;;;;5.88;5.35;;;;;;;;;;5057069;28;20393;-85
2023/08/02 06:11:59;;;;;;;6.45;5.90;;;;;;;;;;5056224;28;20877;-85
2023/08/02 06:14:25;;;;;;;6.50;5.90;;;;;;;;;;5056163;28;20468;-85
2023/08/02 06:16:51;;;;;;;6.38;5.88;;;;;;;;;;5056177;28;20392;-85
2023/08/02 06:19:17;;;;;;;5.50;5.10;;;;;;;;;;5056602;28;20413;-85
2023/08/02 06:21:43;;;;;;;6.20;5.70;;;;;;;;;;5056704;28;20730;-85
2023/08/02 06:24:09;;;;;;;5.72;5.22;;;;;;;;;;5056922;28;20425;-84
2023/08/02 06:26:35;;;;;;;8.23;6.82;;;;;;;;;;5055902;28;20930;-84
2023/08/02 06:29:01;;;;;;;6.47;5.82;;;;;;;;;;5056156;28;20393;-84
2023/08/02 06:31:27;;;;;;;6.67;6.07;;;;;;;;;;5039761;28;20430;-84
2023/08/02 06:33:53;;;;;;;7.20;6.50;;;;;;;;;;5036026;28;20791;-84
2023/08/02 06:36:19;;;;;;;7.50;6.80;;;;;;;;;;5035934;28;20429;-84
2023/08/02 06:38:48;;;;;;;7.10;6.40;;;;;;;;;;5036393;28;20470;-84
2023/08/02 06:41:14;;;;;;;7.70;6.78;;;;;;;;;;5036063;28;20486;-84
2023/08/02 06:43:40;;;;;;;9.95;7.20;;;;;;;;;;5035538;28;20415;-84
2023/08/02 06:46:06;;;;;;;7.90;7.20;;;;;;;;;;5036083;28;20739;-84
2023/08/02 06:48:32;;;;;;;8.03;7.30;;;;;;;;;;5036243;28;20484;-84
2023/08/02 06:50:58;;;;;;;7.78;7.03;;;;;;;;;;5035216;28;20394;-84
2023/08/02 06:53:24;;;;;;;7.13;6.53;;;;;;;;;;5036448;28;20379;-84
2023/08/02 06:55:50;;;;;;;7.35;6.45;;;;;;;;;;5033835;28;20860;-84
2023/08/02 06:58:16;;;;;;;7.60;6.80;;;;;;;;;;5035547;28;20402;-83
2023/08/02 07:00:42;;;;;;;7.43;6.73;;;;;;;;;;5034993;28;20796;-84
2023/08/02 07:03:08;;;;;;;8.57;7.70;;;;;;;;;;5035181;28;20497;-84
2023/08/02 07:05:35;;;;;;;8.50;7.07;;;;;;;;;;5035137;28;20418;-84
2023/08/02 07:08:01;;;;;;;8.85;8.05;;;;;;;;;;5044342;28;20399;-83
2023/08/02 07:10:28;;;;;;;9.07;8.17;;;;;;;;;;5055619;28;20407;-84
2023/08/02 07:12:54;;;;;;;8.88;7.97;;;;;;;;;;5055814;28;20385;-84
2023/08/02 07:15:20;;;;;;;9.50;8.60;;;;;;;;;;5052446;28;20375;-83
2023/08/02 07:17:47;;;;;;;8.98;8.07;;;;;;;;;;5054733;28;20785;-83
2023/08/02 07:20:14;;;;;;;8.98;8.15;;;;;;;;;;5055111;28;20759;-84
2023/08/02 07:22:40;;;;;;;9.73;8.82;;;;;;;;;;5054976;28;20400;-84
2023/08/02 07:25:07;;;;;;;9.40;8.60;;;;;;;;;;5055357;28;20536;-83
2023/08/02 07:27:33;;;;;;;10.30;9.30;;;;;;;;;;5055310;28;20385;-83
2023/08/02 07:29:59;;;;;;;9.30;8.40;;;;;;;;;;5055348;28;20447;-83
2023/08/02 07:32:25;;;;;;;9.05;8.18;;;;;;;;;;5054807;28;20390;-83
2023/08/02 07:34:52;;;;;;;8.45;7.72;;;;;;;;;;5055065;28;20905;-83
2023/08/02 07:37:18;;;;;;;10.52;9.23;;;;;;;;;;5055496;28;20400;-83
2023/08/02 07:39:44;;;;;;;9.77;8.98;;;;;;;;;;5055422;28;20382;-83
2023/08/02 07:42:10;;;;;;;9.35;8.55;;;;;;;;;;5054383;28;20397;-83
2023/08/02 07:44:37;;;;;;;10.15;8.48;;;;;;;;;;5054717;28;20421;-83
2023/08/02 07:47:04;;;;;;;9.63;8.68;;;;;;;;;;5054433;28;20848;-83
2023/08/02 07:49:30;;;;;;;9.10;8.30;;;;;;;;;;5054652;28;20407;-83
2023/08/02 07:51:56;;;;;;;9.57;8.60;;;;;;;;;;5055010;28;20894;-82
2023/08/02 07:54:22;;;;;;;9.00;8.20;;;;;;;;;;5055822;28;20492;-83
2023/08/02 07:56:48;;;;;;;9.65;8.75;;;;;;;;;;5058221;28;20871;-83
2023/08/02 07:59:14;;;;;;;8.88;8.07;;;;;;;;;;5055368;28;20415;-82
2023/08/02 08:01:43;;;;;;;10.63;9.67;;;;;;;;;;5036474;28;20487;-83
2023/08/02 08:04:09;;;;;;;10.63;9.63;;;;;;;;;;5036507;28;20419;-82
2023/08/02 08:06:35;;;;;;;10.90;9.90;;;;;;;;;;5037889;28;20428;-83
2023/08/02 08:09:01;;;;;;;13.00;11.00;;;;;;;;;;5038232;28;20375;-83
2023/08/02 08:11:28;;;;;;;11.05;10.07;;;;;;;;;;5037385;28;20403;-83
2023/08/02 08:13:54;;;;;;;10.30;9.40;;;;;;;;;;5037658;28;20406;-83
2023/08/02 08:16:20;;;;;;;10.35;9.55;;;;;;;;;;5038391;28;20476;-83
2023/08/02 08:18:46;;;;;;;10.50;9.60;;;;;;;;;;5037246;28;20848;-83
2023/08/02 08:21:12;;;;;;;11.57;10.48;;;;;;;;;;5037361;28;20863;-83
2023/08/02 08:23:38;;;;;;;10.32;9.50;;;;;;;;;;5037748;28;20463;-83
2023/08/02 08:26:04;;;;;;;10.32;9.43;;;;;;;;;;5037007;28;20388;-82
2023/08/02 08:28:30;;;;;;;10.93;9.90;;;;;;;;;;5036069;28;20449;-82
2023/08/02 08:31:00;;;;;;;11.23;10.23;;;;;;;;;;5037729;28;20844;-83
2023/08/02 08:33:26;;;;;;;10.80;9.90;;;;;;;;;;5035875;28;20412;-83
2023/08/02 08:35:52;;;;;;;9.40;8.50;;;;;;;;;;5036952;28;20398;-83
2023/08/02 08:38:18;;;;;;;9.02;8.15;;;;;;;;;;5036872;28;20425;-83
2023/08/02 08:40:49;;;;;;;9.80;8.88;;;;;;;;;;5037082;28;20399;-83
2023/08/02 08:43:16;;;;;;;13.10;9.60;;;;;;;;;;5036484;28;20426;-83
2023/08/02 08:45:42;;;;;;;10.70;9.80;;;;;;;;;;5036973;28;20445;-83
2023/08/02 08:48:09;;;;;;;9.40;8.50;;;;;;;;;;5036834;28;20751;-83
2023/08/02 08:50:35;;;;;;;8.57;7.68;;;;;;;;;;5037264;28;20390;-84
2023/08/02 08:53:03;;;;;;;7.97;7.18;;;;;;;;;;5036830;28;20394;-83
2023/08/02 08:55:30;;;;;;;7.57;6.88;;;;;;;;;;5034629;28;20768;-83
2023/08/02 08:57:56;;;;;;;8.75;7.47;;;;;;;;;;5037038;28;20426;-83
2023/08/02 09:00:22;;;;;;;7.18;6.47;;;;;;;;;;5036472;28;20383;-83
2023/08/02 09:02:48;;;;;;;6.60;6.05;;;;;;;;;;5036333;28;20860;-83
2023/08/02 09:05:14;;;;;;;6.75;6.10;;;;;;;;;;5040864;28;20394;-83
2023/08/02 09:07:40;;;;;;;6.50;6.00;;;;;;;;;;5056599;28;20385;-83
2023/08/02 09:10:07;;;;;;;6.07;5.57;;;;;;;;;;5056084;28;20531;-83
2023/08/02 09:12:53;;;;;;;5.95;5.35;;;;;;;;;;5056576;28;20455;-83
2023/08/02 09:15:19;;;;;;;6.95;5.47;;;;;;;;;;5056119;28;20382;-83
2023/08/02 09:17:52;;;;;;;6.80;6.15;;;;;;;;;;5047241;28;20396;-84
2023/08/02 09:20:19;;;;;;;5.75;5.15;;;;;;;;;;5036285;28;20383;-84
2023/08/02 09:22:45;;;;;;;5.95;5.45;;;;;;;;;;5036526;28;20425;-84
2023/08/02 09:25:21;;;;;;;5.22;4.72;;;;;;;;;;5037088;28;20861;-84
2023/08/02 09:27:48;;;;;;;4.80;4.40;;;;;;;;;;5036328;28;20386;-83
2023/08/02 09:30:25;;;;;;;4.95;4.55;;;;;;;;;;5036345;28;20387;-84
2023/08/02 09:33:01;;;;;;;4.32;4.03;;;;;;;;;;5035921;28;20805;-83
2023/08/02 09:35:27;;;;;;;4.85;4.45;;;;;;;;;;5036353;28;20391;-84
2023/08/02 09:37:53;;;;;;;4.75;4.35;;;;;;;;;;5034843;28;20383;-84
2023/08/02 09:40:20;;;;;;;4.33;3.93;;;;;;;;;;5036614;28;20383;-84
2023/08/02 09:42:46;;;;;;;4.73;4.33;;;;;;;;;;5036686;28;20439;-84
2023/08/02 09:45:12;;;;;;;4.60;4.20;;;;;;;;;;5034629;28;20953;-84
2023/08/02 09:47:38;;;;;;;4.53;4.13;;;;;;;;;;5036696;28;20383;-84
2023/08/02 09:50:05;;;;;;;4.43;4.10;;;;;;;;;;5035468;28;20736;-84
2023/08/02 09:52:31;;;;;;;4.38;4.00;;;;;;;;;;5051117;28;20896;-84
2023/08/02 09:54:58;;;;;;;4.32;3.92;;;;;;;;;;5055706;28;20382;-84
2023/08/02 09:57:25;;;;;;;4.28;3.88;;;;;;;;;;5056514;28;20983;-84
2023/08/02 09:59:52;;;;;;;4.75;4.35;;;;;;;;;;5056132;28;20804;-84
2023/08/02 10:02:19;;;;;;;4.15;3.85;;;;;;;;;;5056873;28;20377;-84
2023/08/02 10:04:47;;;;;;;4.28;3.97;;;;;;;;;;5056097;28;20425;-84
2023/08/02 10:07:13;;;;;;;4.70;4.30;;;;;;;;;;5056594;28;20516;-84
2023/08/02 10:09:40;;;;;;;4.50;4.10;;;;;;;;;;5055577;28;20382;-83
2023/08/02 10:12:06;;;;;;;4.20;3.80;;;;;;;;;;5056344;28;20433;-83
2023/08/02 10:14:32;;;;;;;4.75;4.35;;;;;;;;;;5055790;28;20385;-83
2023/08/02 10:17:01;;;;;;;3.83;3.50;;;;;;;;;;5053020;28;20381;-83
2023/08/02 10:19:31;;;;;;;3.75;3.45;;;;;;;;;;5055874;28;20405;-84
2023/08/02 10:21:58;;;;;;;3.90;3.50;;;;;;;;;;5055246;28;20389;-84
2023/08/02 10:24:26;;;;;;;3.88;3.58;;;;;;;;;;5053711;28;20774;-84
2023/08/02 10:26:52;;;;;;;4.10;3.60;;;;;;;;;;5045152;28;20383;-84
2023/08/02 10:29:19;;;;;;;3.70;3.40;;;;;;;;;;5039997;28;20381;-84
2023/08/02 10:31:45;;;;;;;4.00;3.70;;;;;;;;;;5055447;28;20389;-84
2023/08/02 10:34:30;;;;;;;4.25;3.88;;;;;;;;;;5055732;28;20385;-84
2023/08/02 10:36:56;;;;;;;4.00;3.70;;;;;;;;;;5053777;28;20439;-84
2023/08/02 10:39:42;;;;;;;4.05;3.65;;;;;;;;;;5054134;28;20468;-84
2023/08/02 10:42:08;;;;;;;3.90;3.50;;;;;;;;;;5054829;28;20441;-84
2023/08/02 10:44:34;;;;;;;3.90;3.17;;;;;;;;;;5055469;28;20590;-84
2023/08/02 10:47:19;;;;;;;3.77;3.37;;;;;;;;;;5040851;28;20391;-84
2023/08/02 10:49:45;;;;;;;3.72;3.42;;;;;;;;;;5035723;28;20405;-84
2023/08/02 10:52:28;;;;;;;4.03;3.25;;;;;;;;;;5033596;28;20395;-84
2023/08/02 10:55:04;;;;;;;3.90;3.50;;;;;;;;;;5035184;28;20857;-84
2023/08/02 10:57:30;;;;;;;3.38;3.08;;;;;;;;;;5035611;28;20387;-84
2023/08/02 10:59:57;;;;;;;3.63;3.20;;;;;;;;;;5034988;28;20414;-84
2023/08/02 11:02:25;;;;;;;3.77;3.03;;;;;;;;;;5036577;28;20888;-84
2023/08/02 11:04:51;;;;;;;3.67;3.35;;;;;;;;;;5036882;28;20411;-85
2023/08/02 11:07:18;;;;;;;3.38;3.08;;;;;;;;;;5035767;28;20383;-85
2023/08/02 11:09:45;;;;;;;3.65;3.28;;;;;;;;;;5049210;28;20400;-84
2023/08/02 11:12:11;;;;;;;6.47;3.60;;;;;;;;;;5055912;28;20389;-85
2023/08/02 11:14:41;;;;;;;3.45;3.15;;;;;;;;;;5056583;28;20451;-85
2023/08/02 11:17:07;;;;;;;3.00;2.70;;;;;;;;;;5056368;28;20393;-85
2023/08/02 11:19:34;;;;;;;3.20;3.00;;;;;;;;;;5056282;28;20417;-85
2023/08/02 11:22:00;;;;;;;3.63;3.03;;;;;;;;;;5056057;28;20386;-85
2023/08/02 11:24:26;;;;;;;3.70;3.30;;;;;;;;;;5057045;28;20425;-85
2023/08/02 11:26:53;;;;;;;3.90;3.55;;;;;;;;;;5054033;28;20731;-84
2023/08/02 11:29:20;;;;;;;3.70;3.40;;;;;;;;;;5058981;28;20484;-84
2023/08/02 11:31:46;;;;;;;3.70;3.40;;;;;;;;;;5059545;28;20430;-85
2023/08/02 11:34:17;;;;;;;3.58;2.72;;;;;;;;;;5060319;28;20851;-85
2023/08/02 11:36:43;;;;;;;3.50;3.15;;;;;;;;;;5059961;28;20391;-84
2023/08/02 11:39:13;;;;;;;3.10;2.80;;;;;;;;;;5058629;28;20417;-85
2023/08/02 11:41:39;;;;;;;3.53;3.22;;;;;;;;;;5060520;28;20408;-85
2023/08/02 11:44:13;;;;;;;3.38;2.90;;;;;;;;;;5059805;28;20421;-84
2023/08/02 11:46:40;;;;;;;3.53;3.22;;;;;;;;;;5060045;28;20416;-84
2023/08/02 11:49:06;;;;;;;3.50;3.20;;;;;;;;;;5058363;28;20401;-84
2023/08/02 11:51:32;;;;;;;3.90;3.50;;;;;;;;;;5059114;28;20381;-84
2023/08/02 11:53:59;;;;;;;3.60;3.30;;;;;;;;;;5044512;28;20724;-84
2023/08/02 11:56:26;;;;;;;3.25;2.95;;;;;;;;;;5040084;28;20391;-84
2023/08/02 11:58:53;;;;;;;3.50;3.20;;;;;;;;;;5040395;28;20774;-84
2023/08/02 12:01:19;;;;;;;3.40;3.10;;;;;;;;;;5040330;28;20466;-85
2023/08/02 12:03:59;;;;;;;3.85;3.20;;;;;;;;;;5040316;28;20421;-84
2023/08/02 12:06:26;;;;;;;3.97;2.95;;;;;;;;;;5040043;28;20383;-84
2023/08/02 12:09:01;;;;;;;3.92;3.05;;;;;;;;;;5040413;28;20387;-84
2023/08/02 12:11:27;;;;;;;3.40;3.10;;;;;;;;;;5040455;28;20383;-84
2023/08/02 12:13:53;;;;;;;3.67;3.10;;;;;;;;;;5040077;28;20852;-84
2023/08/02 12:16:20;;;;;;;3.23;2.90;;;;;;;;;;5039753;28;20395;-84
2023/08/02 12:18:53;;;;;;;4.80;3.20;;;;;;;;;;5039858;28;20434;-84
2023/08/02 12:21:19;;;;;;;3.10;2.90;;;;;;;;;;5040549;28;20383;-84
2023/08/02 12:23:45;;;;;;;3.50;3.20;;;;;;;;;;5041815;28;20775;-84
2023/08/02 12:26:11;;;;;;;5.13;3.10;;;;;;;;;;5043369;28;20430;-84
2023/08/02 12:28:44;;;;;;;5.27;3.07;;;;;;;;;;5046242;28;20397;-84
2023/08/02 12:31:10;;;;;;;3.15;2.92;;;;;;;;;;5057610;28;20819;-84
2023/08/02 12:33:37;;;;;;;3.38;3.08;;;;;;;;;;5044665;28;20391;-84
2023/08/02 12:36:03;;;;;;;3.17;2.85;;;;;;;;;;5045040;28;20790;-84
2023/08/02 12:38:32;;;;;;;3.28;3.05;;;;;;;;;;5044151;28;20384;-84
2023/08/02 12:41:03;;;;;;;3.08;2.78;;;;;;;;;;5043443;28;20391;-84
2023/08/02 12:43:29;;;;;;;3.53;2.80;;;;;;;;;;5042777;28;20407;-84
2023/08/02 12:45:55;;;;;;;3.03;2.60;;;;;;;;;;5044982;28;20457;-84
2023/08/02 12:48:21;;;;;;;2.97;2.77;;;;;;;;;;5044671;28;20379;-84
2023/08/02 12:50:47;;;;;;;4.27;2.80;;;;;;;;;;5044931;28;20402;-85
2023/08/02 12:53:13;;;;;;;2.80;2.60;;;;;;;;;;5045577;28;20391;-84
2023/08/02 12:55:39;;;;;;;4.40;2.60;;;;;;;;;;5045222;28;20386;-84
2023/08/02 12:58:05;;;;;;;3.35;2.80;;;;;;;;;;5045643;28;20833;-84
2023/08/02 13:00:31;;;;;;;2.90;2.70;;;;;;;;;;5045856;28;20387;-85
2023/08/02 13:02:57;;;;;;;3.17;2.88;;;;;;;;;;5044907;28;20447;-85
2023/08/02 13:05:24;;;;;;;2.60;2.40;;;;;;;;;;5045285;28;20430;-84
2023/08/02 13:07:50;;;;;;;2.83;2.30;;;;;;;;;;5048825;28;20409;-84
2023/08/02 13:10:16;;;;;;;2.50;2.30;;;;;;;;;;5047098;28;20490;-84
2023/08/02 13:12:42;;;;;;;2.40;2.20;;;;;;;;;;5047280;28;20399;-84
2023/08/02 13:15:08;;;;;;;2.90;2.30;;;;;;;;;;5044978;28;20394;-84
2023/08/02 13:17:37;;;;;;;2.60;2.20;;;;;;;;;;5044686;28;20385;-84
2023/08/02 13:20:04;;;;;;;2.40;2.20;;;;;;;;;;5045733;28;20379;-85
2023/08/02 13:22:30;;;;;;;2.47;2.28;;;;;;;;;;5048285;28;20419;-85
2023/08/02 13:24:57;;;;;;;2.40;2.20;;;;;;;;;;5045828;28;20450;-84
2023/08/02 13:27:23;;;;;;;2.88;2.00;;;;;;;;;;5046160;28;20483;-84
2023/08/02 13:29:49;;;;;;;4.50;2.20;;;;;;;;;;5046075;28;20395;-85
2023/08/02 13:32:15;;;;;;;3.67;2.33;;;;;;;;;;5046077;28;20391;-84
2023/08/02 13:34:41;;;;;;;2.33;2.10;;;;;;;;;;5045339;28;20390;-85
2023/08/02 13:37:07;;;;;;;4.53;2.08;;;;;;;;;;5044806;28;20423;-84
2023/08/02 13:39:33;;;;;;;2.40;2.20;;;;;;;;;;5046722;28;20421;-85
2023/08/02 13:41:59;;;;;;;2.35;1.80;;;;;;;;;;5046406;28;20390;-85
2023/08/02 13:44:25;;;;;;;2.20;2.00;;;;;;;;;;5045904;28;20440;-85
2023/08/02 13:46:51;;;;;;;2.30;1.73;;;;;;;;;;5045649;28;20409;-85
2023/08/02 13:49:17;;;;;;;3.35;2.20;;;;;;;;;;5046094;28;20914;-85
2023/08/02 13:51:43;;;;;;;1.90;1.75;;;;;;;;;;5046471;28;20410;-85
2023/08/02 13:54:09;;;;;;;2.67;1.70;;;;;;;;;;5045758;28;20423;-85
2023/08/02 13:56:35;;;;;;;2.63;1.90;;;;;;;;;;5050024;28;20468;-84
2023/08/02 13:59:01;;;;;;;3.22;2.03;;;;;;;;;;5065716;28;20381;-84
2023/08/02 14:01:27;;;;;;;2.78;2.40;;;;;;;;;;5065706;28;20382;-84
2023/08/02 14:03:53;;;;;;;2.30;2.10;;;;;;;;;;5066292;28;20414;-85
2023/08/02 14:06:19;;;;;;;2.10;1.90;;;;;;;;;;5065006;28;20400;-85
2023/08/02 14:08:57;;;;;;;2.55;1.88;;;;;;;;;;5064964;28;20381;-85
2023/08/02 14:11:23;;;;;;;1.92;1.73;;;;;;;;;;5065782;28;20381;-85
2023/08/02 14:13:50;;;;;;;2.47;2.00;;;;;;;;;;5065167;28;20394;-86
2023/08/02 14:16:16;;;;;;;1.75;1.65;;;;;;;;;;5065927;28;20397;-85
2023/08/02 14:18:42;;;;;;;1.85;1.75;;;;;;;;;;5065780;28;20384;-84
2023/08/02 14:21:08;;;;;;;2.40;1.70;;;;;;;;;;5064806;28;20385;-84
2023/08/02 14:23:35;;;;;;;2.67;1.50;;;;;;;;;;5065101;28;20389;-84
2023/08/02 14:26:01;;;;;;;1.88;1.77;;;;;;;;;;5047125;28;20525;-84
2023/08/02 14:28:27;;;;;;;1.85;1.70;;;;;;;;;;5044005;28;20375;-84
2023/08/02 14:30:53;;;;;;;1.95;1.67;;;;;;;;;;5042406;28;20444;-84
2023/08/02 14:33:19;;;;;;;2.00;1.80;;;;;;;;;;5043244;28;20522;-84
2023/08/02 14:35:45;;;;;;;1.83;1.63;;;;;;;;;;5043947;28;20393;-84
2023/08/02 14:38:11;;;;;;;2.00;1.90;;;;;;;;;;5044458;28;20380;-84
2023/08/02 14:40:37;;;;;;;1.63;1.52;;;;;;;;;;5043093;28;20402;-84